sensor_id;sensor_type;location;lat;lon;timestamp;pressure;altitude;pressure_sealevel;temperature;humidity
51603;BME280;37954;51.980;5.850;2024-03-02T00:02:07;99546.38;;;9.25;70.41
51603;BME280;37954;51.980;5.850;2024-03-02T00:06:20;99540.44;;;9.23;70.30
51603;BME280;37954;51.980;5.850;2024-03-02T00:10:38;99528.53;;;9.30;70.13
51603;BME280;37954;51.980;5.850;2024-03-02T00:14:53;99532.81;;;9.31;70.01
51603;BME280;37954;51.980;5.850;2024-03-02T00:19:07;99527.38;;;9.26;69.99
51603;BME280;37954;51.980;5.850;2024-03-02T00:23:20;99541.25;;;9.40;69.88
51603;BME280;37954;51.980;5.850;2024-03-02T00:27:33;99533.78;;;9.42;69.84
51603;BME280;37954;51.980;5.850;2024-03-02T00:31:45;99523.53;;;9.39;69.65
51603;BME280;37954;51.980;5.850;2024-03-02T00:35:57;99529.81;;;9.45;69.74
51603;BME280;37954;51.980;5.850;2024-03-02T00:40:10;99520.63;;;9.40;69.68
51603;BME280;37954;51.980;5.850;2024-03-02T00:44:25;99533.78;;;9.42;69.61
51603;BME280;37954;51.980;5.850;2024-03-02T00:48:39;99543.13;;;9.39;69.50
51603;BME280;37954;51.980;5.850;2024-03-02T00:52:51;99538.50;;;9.35;70.10
51603;BME280;37954;51.980;5.850;2024-03-02T00:57:03;99561.50;;;9.31;70.41
51603;BME280;37954;51.980;5.850;2024-03-02T01:01:15;99557.09;;;9.41;70.25
51603;BME280;37954;51.980;5.850;2024-03-02T01:05:27;99571.31;;;9.42;70.35
51603;BME280;37954;51.980;5.850;2024-03-02T01:09:39;99590.97;;;9.48;70.36
51603;BME280;37954;51.980;5.850;2024-03-02T01:13:52;99605.91;;;9.43;70.34
51603;BME280;37954;51.980;5.850;2024-03-02T01:18:04;99625.25;;;9.46;70.47
51603;BME280;37954;51.980;5.850;2024-03-02T01:22:16;99626.53;;;9.43;70.82
51603;BME280;37954;51.980;5.850;2024-03-02T01:26:29;99637.09;;;9.50;71.53
51603;BME280;37954;51.980;5.850;2024-03-02T01:30:41;99626.88;;;9.47;72.20
51603;BME280;37954;51.980;5.850;2024-03-02T01:34:52;99624.19;;;9.47;72.55
51603;BME280;37954;51.980;5.850;2024-03-02T01:39:04;99645.38;;;9.48;73.51
51603;BME280;37954;51.980;5.850;2024-03-02T01:43:20;99628.97;;;9.45;74.09
51603;BME280;37954;51.980;5.850;2024-03-02T01:47:32;99623.13;;;9.48;74.02
51603;BME280;37954;51.980;5.850;2024-03-02T01:51:44;99602.41;;;9.43;74.80
51603;BME280;37954;51.980;5.850;2024-03-02T01:55:56;99604.53;;;9.41;74.89
51603;BME280;37954;51.980;5.850;2024-03-02T02:00:08;99601.34;;;9.44;75.20
51603;BME280;37954;51.980;5.850;2024-03-02T02:04:23;99599.16;;;9.41;75.47
51603;BME280;37954;51.980;5.850;2024-03-02T02:08:39;99582.75;;;9.37;75.71
51603;BME280;37954;51.980;5.850;2024-03-02T02:12:50;99596.09;;;9.32;75.82
51603;BME280;37954;51.980;5.850;2024-03-02T02:17:02;99595.03;;;9.33;76.29
51603;BME280;37954;51.980;5.850;2024-03-02T02:21:14;99595.56;;;9.35;76.37
51603;BME280;37954;51.980;5.850;2024-03-02T02:25:27;99596.00;;;9.27;76.47
51603;BME280;37954;51.980;5.850;2024-03-02T02:29:38;99587.03;;;9.22;76.58
51603;BME280;37954;51.980;5.850;2024-03-02T02:33:50;99583.66;;;9.26;76.68
51603;BME280;37954;51.980;5.850;2024-03-02T02:38:02;99596.81;;;9.28;76.82
51603;BME280;37954;51.980;5.850;2024-03-02T02:42:14;99592.66;;;9.20;76.89
51603;BME280;37954;51.980;5.850;2024-03-02T02:46:26;99605.00;;;9.21;77.03
51603;BME280;37954;51.980;5.850;2024-03-02T02:50:37;99585.41;;;9.21;76.98
51603;BME280;37954;51.980;5.850;2024-03-02T02:54:49;99596.47;;;9.24;77.15
51603;BME280;37954;51.980;5.850;2024-03-02T02:59:01;99590.72;;;9.16;77.41
51603;BME280;37954;51.980;5.850;2024-03-02T03:03:13;99572.91;;;9.10;77.41
51603;BME280;37954;51.980;5.850;2024-03-02T03:07:25;99590.84;;;9.09;77.51
51603;BME280;37954;51.980;5.850;2024-03-02T03:11:36;99600.19;;;9.06;77.62
51603;BME280;37954;51.980;5.850;2024-03-02T03:15:48;99613.56;;;9.06;78.15
51603;BME280;37954;51.980;5.850;2024-03-02T03:20:00;99588.81;;;8.99;78.29
51603;BME280;37954;51.980;5.850;2024-03-02T03:24:12;99593.59;;;8.97;78.80
51603;BME280;37954;51.980;5.850;2024-03-02T03:28:24;99616.31;;;8.95;79.01
51603;BME280;37954;51.980;5.850;2024-03-02T03:32:35;99609.00;;;8.90;79.58
51603;BME280;37954;51.980;5.850;2024-03-02T03:36:48;99621.25;;;8.86;80.16
51603;BME280;37954;51.980;5.850;2024-03-02T03:41:00;99608.81;;;8.80;80.29
51603;BME280;37954;51.980;5.850;2024-03-02T03:45:11;99625.78;;;8.86;80.51
51603;BME280;37954;51.980;5.850;2024-03-02T03:49:23;99611.50;;;8.80;80.95
51603;BME280;37954;51.980;5.850;2024-03-02T03:53:34;99628.38;;;8.81;81.33
51603;BME280;37954;51.980;5.850;2024-03-02T03:57:46;99621.88;;;8.77;81.09
51603;BME280;37954;51.980;5.850;2024-03-02T04:01:58;99629.66;;;8.78;81.21
51603;BME280;37954;51.980;5.850;2024-03-02T04:06:12;99626.06;;;8.72;81.91
51603;BME280;37954;51.980;5.850;2024-03-02T04:10:25;99645.75;;;8.66;82.32
51603;BME280;37954;51.980;5.850;2024-03-02T04:14:36;99647.88;;;8.64;82.99
51603;BME280;37954;51.980;5.850;2024-03-02T04:18:49;99625.41;;;8.65;82.67
51603;BME280;37954;51.980;5.850;2024-03-02T04:23:00;99627.00;;;8.66;82.62
51603;BME280;37954;51.980;5.850;2024-03-02T04:27:12;99632.06;;;8.63;82.62
51603;BME280;37954;51.980;5.850;2024-03-02T04:31:24;99642.75;;;8.63;82.76
51603;BME280;37954;51.980;5.850;2024-03-02T04:35:36;99637.06;;;8.59;82.68
51603;BME280;37954;51.980;5.850;2024-03-02T04:39:48;99641.03;;;8.57;82.86
51603;BME280;37954;51.980;5.850;2024-03-02T04:44:00;99640.69;;;8.53;82.60
51603;BME280;37954;51.980;5.850;2024-03-02T04:48:11;99652.91;;;8.49;82.84
51603;BME280;37954;51.980;5.850;2024-03-02T04:52:24;99648.75;;;8.42;82.99
51603;BME280;37954;51.980;5.850;2024-03-02T04:56:35;99656.31;;;8.33;82.43
51603;BME280;37954;51.980;5.850;2024-03-02T05:01:01;99658.03;;;8.27;82.62
51603;BME280;37954;51.980;5.850;2024-03-02T05:05:13;99664.09;;;8.11;82.96
51603;BME280;37954;51.980;5.850;2024-03-02T05:09:26;99665.03;;;8.05;83.25
51603;BME280;37954;51.980;5.850;2024-03-02T05:13:38;99673.06;;;7.93;84.04
51603;BME280;37954;51.980;5.850;2024-03-02T05:17:50;99655.28;;;7.87;84.30
51603;BME280;37954;51.980;5.850;2024-03-02T05:22:01;99668.41;;;7.89;84.56
51603;BME280;37954;51.980;5.850;2024-03-02T05:26:14;99670.50;;;7.87;84.83
51603;BME280;37954;51.980;5.850;2024-03-02T05:30:26;99667.09;;;7.80;85.09
51603;BME280;37954;51.980;5.850;2024-03-02T05:34:38;99681.63;;;7.84;85.27
51603;BME280;37954;51.980;5.850;2024-03-02T05:38:49;99672.81;;;7.83;84.87
51603;BME280;37954;51.980;5.850;2024-03-02T05:43:01;99677.69;;;7.75;84.66
51603;BME280;37954;51.980;5.850;2024-03-02T05:47:13;99677.44;;;7.64;84.87
51603;BME280;37954;51.980;5.850;2024-03-02T05:51:24;99676.50;;;7.59;84.77
51603;BME280;37954;51.980;5.850;2024-03-02T05:55:36;99689.66;;;7.60;85.20
51603;BME280;37954;51.980;5.850;2024-03-02T05:59:48;99693.91;;;7.50;84.88
51603;BME280;37954;51.980;5.850;2024-03-02T06:04:00;99691.09;;;7.45;85.33
51603;BME280;37954;51.980;5.850;2024-03-02T06:08:12;99706.69;;;7.48;85.05
51603;BME280;37954;51.980;5.850;2024-03-02T06:12:23;99701.22;;;7.43;85.06
51603;BME280;37954;51.980;5.850;2024-03-02T06:16:35;99713.78;;;7.42;85.31
51603;BME280;37954;51.980;5.850;2024-03-02T06:20:47;99711.63;;;7.32;84.69
51603;BME280;37954;51.980;5.850;2024-03-02T06:24:58;99714.16;;;7.27;84.98
51603;BME280;37954;51.980;5.850;2024-03-02T06:29:10;99716.78;;;7.16;84.98
51603;BME280;37954;51.980;5.850;2024-03-02T06:33:22;99719.25;;;7.17;85.18
51603;BME280;37954;51.980;5.850;2024-03-02T06:37:33;99731.25;;;7.26;85.09
51603;BME280;37954;51.980;5.850;2024-03-02T06:41:45;99738.72;;;7.36;85.65
51603;BME280;37954;51.980;5.850;2024-03-02T06:45:58;99733.50;;;7.41;85.59
51603;BME280;37954;51.980;5.850;2024-03-02T06:50:10;99739.31;;;7.50;85.34
51603;BME280;37954;51.980;5.850;2024-03-02T06:54:22;99748.53;;;7.65;85.62
51603;BME280;37954;51.980;5.850;2024-03-02T06:58:33;99715.56;;;7.72;85.73
51603;BME280;37954;51.980;5.850;2024-03-02T07:02:45;99739.69;;;7.95;85.59
51603;BME280;37954;51.980;5.850;2024-03-02T07:06:57;99742.25;;;8.13;84.55
51603;BME280;37954;51.980;5.850;2024-03-02T07:11:09;99740.94;;;8.16;84.08
51603;BME280;37954;51.980;5.850;2024-03-02T07:15:20;99741.09;;;8.09;83.45
51603;BME280;37954;51.980;5.850;2024-03-02T07:19:38;99757.22;;;8.14;83.54
51603;BME280;37954;51.980;5.850;2024-03-02T07:23:51;99755.28;;;8.10;83.42
51603;BME280;37954;51.980;5.850;2024-03-02T07:28:02;99768.50;;;8.16;83.19
51603;BME280;37954;51.980;5.850;2024-03-02T07:32:15;99770.63;;;8.26;83.20
51603;BME280;37954;51.980;5.850;2024-03-02T07:36:27;99779.63;;;8.55;83.16
51603;BME280;37954;51.980;5.850;2024-03-02T07:40:39;99778.41;;;8.86;82.95
51603;BME280;37954;51.980;5.850;2024-03-02T07:44:51;99785.13;;;9.12;82.16
51603;BME280;37954;51.980;5.850;2024-03-02T07:49:02;99784.19;;;9.18;80.90
51603;BME280;37954;51.980;5.850;2024-03-02T07:53:14;99784.09;;;9.41;80.63
51603;BME280;37954;51.980;5.850;2024-03-02T07:57:26;99783.03;;;9.87;79.53
51603;BME280;37954;51.980;5.850;2024-03-02T08:01:38;99790.00;;;11.10;78.07
51603;BME280;37954;51.980;5.850;2024-03-02T08:05:50;99793.03;;;12.53;76.21
51603;BME280;37954;51.980;5.850;2024-03-02T08:10:01;99785.28;;;14.02;70.57
51603;BME280;37954;51.980;5.850;2024-03-02T08:14:13;99797.81;;;15.13;66.63
51603;BME280;37954;51.980;5.850;2024-03-02T08:18:25;99797.47;;;15.84;62.83
51603;BME280;37954;51.980;5.850;2024-03-02T08:22:36;99795.59;;;16.48;59.33
51603;BME280;37954;51.980;5.850;2024-03-02T08:26:48;99795.00;;;16.85;55.71
51603;BME280;37954;51.980;5.850;2024-03-02T08:31:00;99791.69;;;16.93;53.47
51603;BME280;37954;51.980;5.850;2024-03-02T08:35:12;99801.81;;;16.82;51.85
51603;BME280;37954;51.980;5.850;2024-03-02T08:39:24;99799.59;;;17.13;51.22
51603;BME280;37954;51.980;5.850;2024-03-02T08:43:35;99799.69;;;17.27;49.53
51603;BME280;37954;51.980;5.850;2024-03-02T08:47:48;99805.75;;;17.19;48.69
51603;BME280;37954;51.980;5.850;2024-03-02T08:51:59;99804.25;;;17.50;49.54
51603;BME280;37954;51.980;5.850;2024-03-02T08:56:11;99818.19;;;17.67;48.15
51603;BME280;37954;51.980;5.850;2024-03-02T09:00:24;99818.56;;;17.98;47.81
51603;BME280;37954;51.980;5.850;2024-03-02T09:04:36;99815.94;;;18.26;47.43
51603;BME280;37954;51.980;5.850;2024-03-02T09:08:48;99810.56;;;18.39;46.09
51603;BME280;37954;51.980;5.850;2024-03-02T09:13:01;99812.41;;;18.58;44.94
51603;BME280;37954;51.980;5.850;2024-03-02T09:17:13;99816.81;;;18.72;44.67
51603;BME280;37954;51.980;5.850;2024-03-02T09:21:25;99825.59;;;18.83;44.24
51603;BME280;37954;51.980;5.850;2024-03-02T09:25:37;99802.09;;;18.60;43.05
51603;BME280;37954;51.980;5.850;2024-03-02T09:29:48;99828.22;;;18.56;42.85
51603;BME280;37954;51.980;5.850;2024-03-02T09:34:00;99827.97;;;18.38;43.22
51603;BME280;37954;51.980;5.850;2024-03-02T09:38:12;99814.09;;;18.40;42.88
51603;BME280;37954;51.980;5.850;2024-03-02T09:42:24;99820.00;;;18.61;42.78
51603;BME280;37954;51.980;5.850;2024-03-02T09:46:35;99808.28;;;18.93;42.65
51603;BME280;37954;51.980;5.850;2024-03-02T09:50:48;99798.19;;;18.93;42.06
51603;BME280;37954;51.980;5.850;2024-03-02T09:54:59;99810.47;;;18.91;41.82
51603;BME280;37954;51.980;5.850;2024-03-02T09:59:11;99813.63;;;18.98;41.70
51603;BME280;37954;51.980;5.850;2024-03-02T10:03:25;99815.94;;;19.32;41.83
51603;BME280;37954;51.980;5.850;2024-03-02T10:07:38;99824.59;;;19.47;41.30
51603;BME280;37954;51.980;5.850;2024-03-02T10:11:50;99819.38;;;20.01;41.09
51603;BME280;37954;51.980;5.850;2024-03-02T10:16:12;99825.19;;;20.30;40.42
51603;BME280;37954;51.980;5.850;2024-03-02T10:20:25;99823.38;;;20.39;39.88
51603;BME280;37954;51.980;5.850;2024-03-02T10:24:39;99828.38;;;20.46;39.13
51603;BME280;37954;51.980;5.850;2024-03-02T10:28:51;99825.03;;;20.80;39.03
51603;BME280;37954;51.980;5.850;2024-03-02T10:33:11;99817.59;;;20.94;38.50
51603;BME280;37954;51.980;5.850;2024-03-02T10:37:22;99815.59;;;20.86;37.09
51603;BME280;37954;51.980;5.850;2024-03-02T10:41:37;99800.34;;;20.85;37.36
51603;BME280;37954;51.980;5.850;2024-03-02T10:45:49;99791.47;;;21.10;37.18
51603;BME280;37954;51.980;5.850;2024-03-02T10:50:04;99781.56;;;21.23;36.81
51603;BME280;37954;51.980;5.850;2024-03-02T10:54:19;99783.38;;;21.45;36.88
51603;BME280;37954;51.980;5.850;2024-03-02T10:58:37;99786.09;;;21.28;35.98
51603;BME280;37954;51.980;5.850;2024-03-02T11:02:56;99786.44;;;20.95;35.67
51603;BME280;37954;51.980;5.850;2024-03-02T11:07:10;99772.44;;;20.88;36.21
51603;BME280;37954;51.980;5.850;2024-03-02T11:11:28;99777.44;;;20.64;36.04
51603;BME280;37954;51.980;5.850;2024-03-02T11:15:43;99775.81;;;20.54;36.26
51603;BME280;37954;51.980;5.850;2024-03-02T11:19:55;99772.72;;;20.02;36.11
51603;BME280;37954;51.980;5.850;2024-03-02T11:28:49;99764.09;;;19.51;37.18
51603;BME280;37954;51.980;5.850;2024-03-02T11:33:05;99768.34;;;19.57;37.42
51603;BME280;37954;51.980;5.850;2024-03-02T11:37:24;99770.72;;;19.58;38.38
51603;BME280;37954;51.980;5.850;2024-03-02T11:41:36;99778.41;;;19.56;38.24
51603;BME280;37954;51.980;5.850;2024-03-02T11:45:48;99772.97;;;19.56;38.11
51603;BME280;37954;51.980;5.850;2024-03-02T11:50:07;99759.47;;;19.37;37.73
51603;BME280;37954;51.980;5.850;2024-03-02T11:54:20;99757.59;;;19.60;37.84
51603;BME280;37954;51.980;5.850;2024-03-02T11:58:34;99758.00;;;19.67;37.81
51603;BME280;37954;51.980;5.850;2024-03-02T12:03:03;99756.78;;;19.60;37.63
51603;BME280;37954;51.980;5.850;2024-03-02T12:07:23;99738.78;;;19.36;37.33
51603;BME280;37954;51.980;5.850;2024-03-02T12:11:35;99733.75;;;19.30;37.24
51603;BME280;37954;51.980;5.850;2024-03-02T12:15:47;99737.50;;;19.20;37.60
51603;BME280;37954;51.980;5.850;2024-03-02T12:19:59;99744.88;;;19.20;37.27
51603;BME280;37954;51.980;5.850;2024-03-02T12:24:10;99732.88;;;19.21;37.55
51603;BME280;37954;51.980;5.850;2024-03-02T12:28:22;99735.56;;;19.07;37.45
51603;BME280;37954;51.980;5.850;2024-03-02T12:32:34;99708.06;;;19.08;37.36
51603;BME280;37954;51.980;5.850;2024-03-02T12:36:46;99714.94;;;18.92;36.98
51603;BME280;37954;51.980;5.850;2024-03-02T12:41:00;99734.00;;;18.65;36.96
51603;BME280;37954;51.980;5.850;2024-03-02T12:45:13;99717.31;;;18.06;37.08
51603;BME280;37954;51.980;5.850;2024-03-02T12:49:25;99719.28;;;17.50;37.91
51603;BME280;37954;51.980;5.850;2024-03-02T12:53:37;99709.25;;;17.31;38.37
51603;BME280;37954;51.980;5.850;2024-03-02T12:57:50;99701.81;;;17.37;38.75
51603;BME280;37954;51.980;5.850;2024-03-02T13:02:02;99701.97;;;17.46;39.24
51603;BME280;37954;51.980;5.850;2024-03-02T13:06:14;99693.97;;;17.35;39.39
51603;BME280;37954;51.980;5.850;2024-03-02T13:10:27;99692.44;;;17.48;39.76
51603;BME280;37954;51.980;5.850;2024-03-02T13:14:38;99690.13;;;17.55;39.99
51603;BME280;37954;51.980;5.850;2024-03-02T13:18:50;99682.44;;;17.81;40.15
51603;BME280;37954;51.980;5.850;2024-03-02T13:23:03;99686.28;;;17.94;40.00
51603;BME280;37954;51.980;5.850;2024-03-02T13:27:14;99686.09;;;17.90;40.42
51603;BME280;37954;51.980;5.850;2024-03-02T13:31:27;99687.13;;;17.38;41.05
51603;BME280;37954;51.980;5.850;2024-03-02T13:35:39;99678.88;;;16.87;42.11
51603;BME280;37954;51.980;5.850;2024-03-02T13:39:50;99680.19;;;16.70;43.06
51603;BME280;37954;51.980;5.850;2024-03-02T13:44:03;99666.16;;;16.63;43.07
51603;BME280;37954;51.980;5.850;2024-03-02T13:48:15;99658.34;;;16.57;43.20
51603;BME280;37954;51.980;5.850;2024-03-02T13:52:26;99657.19;;;16.39;43.45
51603;BME280;37954;51.980;5.850;2024-03-02T13:56:38;99650.22;;;16.33;43.48
51603;BME280;37954;51.980;5.850;2024-03-02T14:00:52;99642.50;;;16.21;43.92
51603;BME280;37954;51.980;5.850;2024-03-02T14:05:04;99635.84;;;16.09;44.23
51603;BME280;37954;51.980;5.850;2024-03-02T14:09:16;99648.66;;;15.98;44.89
51603;BME280;37954;51.980;5.850;2024-03-02T14:13:28;99654.75;;;15.85;45.21
51603;BME280;37954;51.980;5.850;2024-03-02T14:17:40;99655.53;;;15.51;45.62
51603;BME280;37954;51.980;5.850;2024-03-02T14:21:52;99637.81;;;15.35;46.03
51603;BME280;37954;51.980;5.850;2024-03-02T14:26:04;99631.63;;;15.29;46.12
51603;BME280;37954;51.980;5.850;2024-03-02T14:30:15;99637.31;;;15.28;46.26
51603;BME280;37954;51.980;5.850;2024-03-02T14:34:27;99624.03;;;15.31;46.48
51603;BME280;37954;51.980;5.850;2024-03-02T14:38:39;99628.88;;;15.35;46.27
51603;BME280;37954;51.980;5.850;2024-03-02T14:42:50;99618.38;;;15.28;46.05
51603;BME280;37954;51.980;5.850;2024-03-02T14:47:02;99609.94;;;15.35;46.05
51603;BME280;37954;51.980;5.850;2024-03-02T14:51:15;99613.47;;;15.30;46.28
51603;BME280;37954;51.980;5.850;2024-03-02T14:55:27;99608.69;;;15.22;46.67
51603;BME280;37954;51.980;5.850;2024-03-02T14:59:39;99607.88;;;15.21;47.09
51603;BME280;37954;51.980;5.850;2024-03-02T15:03:51;99608.75;;;15.12;47.58
51603;BME280;37954;51.980;5.850;2024-03-02T15:08:03;99606.88;;;15.07;48.26
51603;BME280;37954;51.980;5.850;2024-03-02T15:12:16;99608.00;;;15.06;49.07
51603;BME280;37954;51.980;5.850;2024-03-02T15:16:29;99608.00;;;15.06;49.62
51603;BME280;37954;51.980;5.850;2024-03-02T15:20:41;99602.31;;;15.03;49.99
51603;BME280;37954;51.980;5.850;2024-03-02T15:24:52;99605.28;;;15.06;49.74
51603;BME280;37954;51.980;5.850;2024-03-02T15:29:05;99603.88;;;15.09;49.94
51603;BME280;37954;51.980;5.850;2024-03-02T15:33:17;99585.84;;;14.99;50.32
51603;BME280;37954;51.980;5.850;2024-03-02T15:37:29;99589.81;;;15.12;50.81
51603;BME280;37954;51.980;5.850;2024-03-02T15:41:44;99599.00;;;15.11;50.98
51603;BME280;37954;51.980;5.850;2024-03-02T15:45:55;99585.31;;;14.97;51.29
51603;BME280;37954;51.980;5.850;2024-03-02T15:50:07;99599.38;;;14.94;51.74
51603;BME280;37954;51.980;5.850;2024-03-02T15:54:19;99592.16;;;14.84;52.14
51603;BME280;37954;51.980;5.850;2024-03-02T15:58:31;99601.06;;;14.85;52.70
51603;BME280;37954;51.980;5.850;2024-03-02T16:02:43;99603.00;;;14.74;52.97
51603;BME280;37954;51.980;5.850;2024-03-02T16:06:54;99601.13;;;14.75;53.23
51603;BME280;37954;51.980;5.850;2024-03-02T16:11:06;99578.28;;;14.52;53.05
51603;BME280;37954;51.980;5.850;2024-03-02T16:15:18;99586.38;;;14.52;53.62
51603;BME280;37954;51.980;5.850;2024-03-02T16:19:30;99598.75;;;14.58;53.70
51603;BME280;37954;51.980;5.850;2024-03-02T16:23:44;99586.41;;;14.47;54.24
51603;BME280;37954;51.980;5.850;2024-03-02T16:27:55;99586.94;;;14.49;54.49
51603;BME280;37954;51.980;5.850;2024-03-02T16:32:07;99568.03;;;14.39;54.93
51603;BME280;37954;51.980;5.850;2024-03-02T16:36:19;99553.47;;;14.29;54.95
51603;BME280;37954;51.980;5.850;2024-03-02T16:40:32;99582.13;;;14.31;55.44
51603;BME280;37954;51.980;5.850;2024-03-02T16:44:44;99561.38;;;14.11;55.60
51603;BME280;37954;51.980;5.850;2024-03-02T16:48:57;99577.06;;;14.09;56.16
51603;BME280;37954;51.980;5.850;2024-03-02T16:53:09;99574.66;;;13.92;56.54
51603;BME280;37954;51.980;5.850;2024-03-02T16:57:21;99574.44;;;13.83;56.87
51603;BME280;37954;51.980;5.850;2024-03-02T17:01:32;99572.00;;;13.82;56.88
51603;BME280;37954;51.980;5.850;2024-03-02T17:05:44;99569.56;;;13.80;57.15
51603;BME280;37954;51.980;5.850;2024-03-02T17:09:56;99548.81;;;13.66;57.41
51603;BME280;37954;51.980;5.850;2024-03-02T17:14:09;99568.75;;;13.85;57.49
51603;BME280;37954;51.980;5.850;2024-03-02T17:18:21;99574.97;;;13.80;57.60
51603;BME280;37954;51.980;5.850;2024-03-02T17:22:33;99571.47;;;13.70;57.76
51603;BME280;37954;51.980;5.850;2024-03-02T17:26:45;99570.41;;;13.55;58.00
51603;BME280;37954;51.980;5.850;2024-03-02T17:30:56;99571.22;;;13.51;58.37
51603;BME280;37954;51.980;5.850;2024-03-02T17:35:08;99590.38;;;13.44;58.76
51603;BME280;37954;51.980;5.850;2024-03-02T17:39:20;99612.78;;;13.45;59.05
51603;BME280;37954;51.980;5.850;2024-03-02T17:43:31;99600.34;;;13.39;59.66
51603;BME280;37954;51.980;5.850;2024-03-02T17:47:44;99597.41;;;13.30;59.70
51603;BME280;37954;51.980;5.850;2024-03-02T17:51:55;99607.66;;;13.33;60.21
51603;BME280;37954;51.980;5.850;2024-03-02T17:56:10;99613.56;;;13.35;60.25
51603;BME280;37954;51.980;5.850;2024-03-02T18:00:22;99602.78;;;13.25;60.60
51603;BME280;37954;51.980;5.850;2024-03-02T18:04:59;99631.13;;;13.43;60.83
51603;BME280;37954;51.980;5.850;2024-03-02T18:09:11;99617.88;;;13.36;60.63
51603;BME280;37954;51.980;5.850;2024-03-02T18:13:23;99622.75;;;13.39;60.89
51603;BME280;37954;51.980;5.850;2024-03-02T18:17:35;99607.38;;;13.35;60.81
51603;BME280;37954;51.980;5.850;2024-03-02T18:21:47;99613.06;;;13.33;60.89
51603;BME280;37954;51.980;5.850;2024-03-02T18:26:00;99624.91;;;13.27;61.14
51603;BME280;37954;51.980;5.850;2024-03-02T18:30:12;99623.28;;;13.21;61.37
51603;BME280;37954;51.980;5.850;2024-03-02T18:34:24;99623.78;;;13.13;61.50
51603;BME280;37954;51.980;5.850;2024-03-02T18:38:36;99609.44;;;13.02;61.82
51603;BME280;37954;51.980;5.850;2024-03-02T18:42:48;99622.13;;;13.02;62.07
51603;BME280;37954;51.980;5.850;2024-03-02T18:46:59;99596.75;;;12.82;61.96
51603;BME280;37954;51.980;5.850;2024-03-02T18:51:11;99608.06;;;12.79;62.21
51603;BME280;37954;51.980;5.850;2024-03-02T18:55:23;99592.38;;;12.66;62.29
51603;BME280;37954;51.980;5.850;2024-03-02T18:59:35;99595.63;;;12.68;62.78
51603;BME280;37954;51.980;5.850;2024-03-02T19:03:47;99586.19;;;12.61;62.87
51603;BME280;37954;51.980;5.850;2024-03-02T19:07:58;99599.41;;;12.67;62.82
51603;BME280;37954;51.980;5.850;2024-03-02T19:12:10;99603.72;;;12.68;62.75
51603;BME280;37954;51.980;5.850;2024-03-02T19:16:22;99602.09;;;12.67;63.18
51603;BME280;37954;51.980;5.850;2024-03-02T19:20:34;99602.63;;;12.69;62.78
51603;BME280;37954;51.980;5.850;2024-03-02T19:24:46;99597.22;;;12.64;62.47
51603;BME280;37954;51.980;5.850;2024-03-02T19:28:58;99579.41;;;12.53;62.63
51603;BME280;37954;51.980;5.850;2024-03-02T19:33:10;99581.03;;;12.44;62.66
51603;BME280;37954;51.980;5.850;2024-03-02T19:37:25;99595.03;;;12.51;63.13
51603;BME280;37954;51.980;5.850;2024-03-02T19:41:37;99594.75;;;12.47;63.31
51603;BME280;37954;51.980;5.850;2024-03-02T19:45:49;99590.97;;;12.43;63.44
51603;BME280;37954;51.980;5.850;2024-03-02T19:50:01;99571.84;;;12.40;63.42
51603;BME280;37954;51.980;5.850;2024-03-02T19:54:13;99587.72;;;12.36;63.86
51603;BME280;37954;51.980;5.850;2024-03-02T19:58:25;99563.19;;;12.28;63.90
51603;BME280;37954;51.980;5.850;2024-03-02T20:02:37;99557.25;;;12.31;64.11
51603;BME280;37954;51.980;5.850;2024-03-02T20:06:51;99570.47;;;12.37;64.18
51603;BME280;37954;51.980;5.850;2024-03-02T20:11:03;99560.81;;;12.41;64.17
51603;BME280;37954;51.980;5.850;2024-03-02T20:15:15;99558.91;;;12.47;64.37
51603;BME280;37954;51.980;5.850;2024-03-02T20:19:30;99550.03;;;12.41;64.02
51603;BME280;37954;51.980;5.850;2024-03-02T20:23:41;99548.41;;;12.40;63.80
51603;BME280;37954;51.980;5.850;2024-03-02T20:27:53;99550.81;;;12.37;63.86
51603;BME280;37954;51.980;5.850;2024-03-02T20:32:05;99564.03;;;12.38;63.87
51603;BME280;37954;51.980;5.850;2024-03-02T20:36:18;99545.41;;;12.27;63.62
51603;BME280;37954;51.980;5.850;2024-03-02T20:40:30;99558.31;;;12.30;63.53
51603;BME280;37954;51.980;5.850;2024-03-02T20:44:41;99556.19;;;12.27;63.21
51603;BME280;37954;51.980;5.850;2024-03-02T20:48:53;99570.69;;;12.20;63.42
51603;BME280;37954;51.980;5.850;2024-03-02T20:53:05;99566.63;;;12.18;63.13
51603;BME280;37954;51.980;5.850;2024-03-02T20:57:19;99565.25;;;12.10;63.55
51603;BME280;37954;51.980;5.850;2024-03-02T21:01:31;99567.66;;;12.07;63.30
51603;BME280;37954;51.980;5.850;2024-03-02T21:05:43;99568.97;;;11.99;63.66
51603;BME280;37954;51.980;5.850;2024-03-02T21:09:54;99571.91;;;11.98;63.55
51603;BME280;37954;51.980;5.850;2024-03-02T21:14:08;99580.78;;;11.98;64.06
51603;BME280;37954;51.980;5.850;2024-03-02T21:18:20;99580.81;;;12.03;63.97
51603;BME280;37954;51.980;5.850;2024-03-02T21:22:32;99591.13;;;12.16;63.74
51603;BME280;37954;51.980;5.850;2024-03-02T21:26:43;99588.47;;;12.22;63.64
51603;BME280;37954;51.980;5.850;2024-03-02T21:30:55;99597.63;;;12.26;63.32
51603;BME280;37954;51.980;5.850;2024-03-02T21:35:07;99605.72;;;12.26;63.31
51603;BME280;37954;51.980;5.850;2024-03-02T21:39:19;99600.88;;;12.28;63.53
51603;BME280;37954;51.980;5.850;2024-03-02T21:43:42;99606.00;;;12.34;63.37
51603;BME280;37954;51.980;5.850;2024-03-02T21:47:55;99593.06;;;12.26;63.34
51603;BME280;37954;51.980;5.850;2024-03-02T21:52:07;99591.19;;;12.27;62.83
51603;BME280;37954;51.980;5.850;2024-03-02T21:56:19;99604.38;;;12.28;62.81
51603;BME280;37954;51.980;5.850;2024-03-02T22:00:31;99587.06;;;12.09;62.97
51603;BME280;37954;51.980;5.850;2024-03-02T22:04:44;99576.72;;;11.96;63.30
51603;BME280;37954;51.980;5.850;2024-03-02T22:08:56;99587.25;;;11.92;63.67
51603;BME280;37954;51.980;5.850;2024-03-02T22:13:08;99590.94;;;11.86;63.90
51603;BME280;37954;51.980;5.850;2024-03-02T22:17:20;99595.06;;;11.94;63.73
51603;BME280;37954;51.980;5.850;2024-03-02T22:21:32;99588.56;;;11.90;63.84
51603;BME280;37954;51.980;5.850;2024-03-02T22:25:43;99587.25;;;11.97;63.81
51603;BME280;37954;51.980;5.850;2024-03-02T22:29:56;99592.09;;;12.00;63.84